Terminal Aerodrome Forecast
Issued by NWS

Home | Current Version | Previous Version | Text Only | Print | Product List | Glossary On
Versions: 1 2 3 4 5 6 7 8 9 10 11 12 13 14 15 16 17
000
FTAK31 PAFA 200540
TAFAUN
TAF
PAUN 200540Z 2006/2106 09008KT P6SM SCT040 OVC050
     FM200800 08009KT 5SM -SHRA BR SCT007 OVC025
     FM201600 35010KT P6SM VCSH FEW007 SCT015 OVC025=

USA.gov is the U.S. government's official web portal to all federal, state and local government web resources and services.